sensor_id;sensor_type;location;lat;lon;timestamp;temperature;humidity
18884;DHT22;9574;47.282;9.640;2024-03-02T00:01:49;8.20;99.90
18884;DHT22;9574;47.282;9.640;2024-03-02T00:04:16;8.10;99.90
18884;DHT22;9574;47.282;9.640;2024-03-02T00:06:43;8.10;99.90
18884;DHT22;9574;47.282;9.640;2024-03-02T00:09:11;8.20;99.90
18884;DHT22;9574;47.282;9.640;2024-03-02T00:11:38;8.10;99.90
18884;DHT22;9574;47.282;9.640;2024-03-02T00:14:07;8.00;99.90
18884;DHT22;9574;47.282;9.640;2024-03-02T00:16:34;8.10;99.90
18884;DHT22;9574;47.282;9.640;2024-03-02T00:19:03;8.10;99.90
18884;DHT22;9574;47.282;9.640;2024-03-02T00:21:31;7.80;99.90
18884;DHT22;9574;47.282;9.640;2024-03-02T00:23:58;7.60;99.90
18884;DHT22;9574;47.282;9.640;2024-03-02T00:26:26;7.60;99.90
18884;DHT22;9574;47.282;9.640;2024-03-02T00:28:55;7.50;99.90
18884;DHT22;9574;47.282;9.640;2024-03-02T00:31:23;7.30;99.90
18884;DHT22;9574;47.282;9.640;2024-03-02T00:33:50;7.20;99.90
18884;DHT22;9574;47.282;9.640;2024-03-02T00:38:54;7.10;99.90
18884;DHT22;9574;47.282;9.640;2024-03-02T00:41:22;7.20;99.90
18884;DHT22;9574;47.282;9.640;2024-03-02T00:43:58;7.30;99.90
18884;DHT22;9574;47.282;9.640;2024-03-02T00:46:31;7.40;99.90
18884;DHT22;9574;47.282;9.640;2024-03-02T00:49:00;7.60;99.90
18884;DHT22;9574;47.282;9.640;2024-03-02T00:51:30;7.80;99.90
18884;DHT22;9574;47.282;9.640;2024-03-02T00:53:58;7.90;99.90
18884;DHT22;9574;47.282;9.640;2024-03-02T00:56:26;8.00;99.90
18884;DHT22;9574;47.282;9.640;2024-03-02T00:58:53;8.10;99.90
18884;DHT22;9574;47.282;9.640;2024-03-02T01:01:20;8.20;99.90
18884;DHT22;9574;47.282;9.640;2024-03-02T01:03:48;8.20;99.90
18884;DHT22;9574;47.282;9.640;2024-03-02T01:06:16;8.30;99.90
18884;DHT22;9574;47.282;9.640;2024-03-02T01:08:44;8.20;99.90
18884;DHT22;9574;47.282;9.640;2024-03-02T01:11:10;8.00;99.90
18884;DHT22;9574;47.282;9.640;2024-03-02T01:13:38;8.00;99.90
18884;DHT22;9574;47.282;9.640;2024-03-02T01:16:05;7.80;99.90
18884;DHT22;9574;47.282;9.640;2024-03-02T01:18:32;7.50;99.90
18884;DHT22;9574;47.282;9.640;2024-03-02T01:21:00;7.20;99.90
18884;DHT22;9574;47.282;9.640;2024-03-02T01:23:27;7.20;99.90
18884;DHT22;9574;47.282;9.640;2024-03-02T01:25:54;7.20;99.90
18884;DHT22;9574;47.282;9.640;2024-03-02T01:28:21;7.50;99.90
18884;DHT22;9574;47.282;9.640;2024-03-02T01:30:48;7.50;99.90
18884;DHT22;9574;47.282;9.640;2024-03-02T01:33:16;7.40;99.90
18884;DHT22;9574;47.282;9.640;2024-03-02T01:35:43;7.30;99.90
18884;DHT22;9574;47.282;9.640;2024-03-02T01:38:11;7.20;99.90
18884;DHT22;9574;47.282;9.640;2024-03-02T01:40:38;7.00;99.90
18884;DHT22;9574;47.282;9.640;2024-03-02T01:43:06;6.90;99.90
18884;DHT22;9574;47.282;9.640;2024-03-02T01:45:33;6.90;99.90
18884;DHT22;9574;47.282;9.640;2024-03-02T01:48:01;6.90;99.90
18884;DHT22;9574;47.282;9.640;2024-03-02T01:50:28;6.90;99.90
18884;DHT22;9574;47.282;9.640;2024-03-02T01:52:56;6.90;99.90
18884;DHT22;9574;47.282;9.640;2024-03-02T01:55:24;7.20;99.90
18884;DHT22;9574;47.282;9.640;2024-03-02T01:57:53;7.50;99.90
18884;DHT22;9574;47.282;9.640;2024-03-02T02:00:21;7.50;99.90
18884;DHT22;9574;47.282;9.640;2024-03-02T02:02:50;7.60;99.90
18884;DHT22;9574;47.282;9.640;2024-03-02T02:05:17;7.60;99.90
18884;DHT22;9574;47.282;9.640;2024-03-02T02:07:44;7.50;99.90
18884;DHT22;9574;47.282;9.640;2024-03-02T02:10:11;7.50;99.90
18884;DHT22;9574;47.282;9.640;2024-03-02T02:12:39;7.30;99.90
18884;DHT22;9574;47.282;9.640;2024-03-02T02:15:22;7.30;99.90
18884;DHT22;9574;47.282;9.640;2024-03-02T02:17:49;7.50;99.90
18884;DHT22;9574;47.282;9.640;2024-03-02T02:20:16;7.60;99.90
18884;DHT22;9574;47.282;9.640;2024-03-02T02:22:55;7.70;99.90
18884;DHT22;9574;47.282;9.640;2024-03-02T02:25:22;7.70;99.90
18884;DHT22;9574;47.282;9.640;2024-03-02T02:27:49;7.60;99.90
18884;DHT22;9574;47.282;9.640;2024-03-02T02:30:19;7.50;99.90
18884;DHT22;9574;47.282;9.640;2024-03-02T02:32:46;7.40;99.90
18884;DHT22;9574;47.282;9.640;2024-03-02T02:35:13;7.40;99.90
18884;DHT22;9574;47.282;9.640;2024-03-02T02:37:41;7.40;99.90
18884;DHT22;9574;47.282;9.640;2024-03-02T02:40:10;7.30;99.90
18884;DHT22;9574;47.282;9.640;2024-03-02T02:42:38;7.30;99.90
18884;DHT22;9574;47.282;9.640;2024-03-02T02:45:05;7.30;99.90
18884;DHT22;9574;47.282;9.640;2024-03-02T02:47:32;7.20;99.90
18884;DHT22;9574;47.282;9.640;2024-03-02T02:50:01;7.00;99.90
18884;DHT22;9574;47.282;9.640;2024-03-02T02:52:31;6.80;99.90
18884;DHT22;9574;47.282;9.640;2024-03-02T02:55:02;6.70;99.90
18884;DHT22;9574;47.282;9.640;2024-03-02T02:57:31;6.60;99.90
18884;DHT22;9574;47.282;9.640;2024-03-02T03:00:01;6.60;99.90
18884;DHT22;9574;47.282;9.640;2024-03-02T03:02:31;6.60;99.90
18884;DHT22;9574;47.282;9.640;2024-03-02T03:04:58;6.70;99.90
18884;DHT22;9574;47.282;9.640;2024-03-02T03:07:24;6.70;99.90
18884;DHT22;9574;47.282;9.640;2024-03-02T03:09:51;6.80;99.90
18884;DHT22;9574;47.282;9.640;2024-03-02T03:12:18;6.90;99.90
18884;DHT22;9574;47.282;9.640;2024-03-02T03:14:47;7.20;99.90
18884;DHT22;9574;47.282;9.640;2024-03-02T03:17:14;7.40;99.90
18884;DHT22;9574;47.282;9.640;2024-03-02T03:19:41;7.40;99.90
18884;DHT22;9574;47.282;9.640;2024-03-02T03:22:08;7.30;99.90
18884;DHT22;9574;47.282;9.640;2024-03-02T03:24:35;7.20;99.90
18884;DHT22;9574;47.282;9.640;2024-03-02T03:27:02;7.30;99.90
18884;DHT22;9574;47.282;9.640;2024-03-02T03:29:29;7.30;99.90
18884;DHT22;9574;47.282;9.640;2024-03-02T03:31:57;7.60;99.90
18884;DHT22;9574;47.282;9.640;2024-03-02T03:34:24;7.80;99.90
18884;DHT22;9574;47.282;9.640;2024-03-02T03:36:51;7.90;99.90
18884;DHT22;9574;47.282;9.640;2024-03-02T03:39:18;7.80;99.90
18884;DHT22;9574;47.282;9.640;2024-03-02T03:41:45;7.80;99.90
18884;DHT22;9574;47.282;9.640;2024-03-02T03:44:12;7.70;99.90
18884;DHT22;9574;47.282;9.640;2024-03-02T03:46:39;7.60;99.90
18884;DHT22;9574;47.282;9.640;2024-03-02T03:49:07;7.40;99.90
18884;DHT22;9574;47.282;9.640;2024-03-02T03:51:34;7.10;99.90
18884;DHT22;9574;47.282;9.640;2024-03-02T03:54:01;6.80;99.90
18884;DHT22;9574;47.282;9.640;2024-03-02T03:56:28;6.50;99.90
18884;DHT22;9574;47.282;9.640;2024-03-02T03:58:55;6.40;99.90
18884;DHT22;9574;47.282;9.640;2024-03-02T04:01:22;6.30;99.90
18884;DHT22;9574;47.282;9.640;2024-03-02T04:03:49;6.30;99.90
18884;DHT22;9574;47.282;9.640;2024-03-02T04:06:17;6.30;99.90
18884;DHT22;9574;47.282;9.640;2024-03-02T04:08:44;6.40;99.90
18884;DHT22;9574;47.282;9.640;2024-03-02T04:11:11;6.70;99.90
18884;DHT22;9574;47.282;9.640;2024-03-02T04:13:38;7.00;99.90
18884;DHT22;9574;47.282;9.640;2024-03-02T04:16:05;7.20;99.90
18884;DHT22;9574;47.282;9.640;2024-03-02T04:18:32;7.40;99.90
18884;DHT22;9574;47.282;9.640;2024-03-02T04:20:59;7.20;99.90
18884;DHT22;9574;47.282;9.640;2024-03-02T04:23:27;7.10;99.90
18884;DHT22;9574;47.282;9.640;2024-03-02T04:25:54;6.90;99.90
18884;DHT22;9574;47.282;9.640;2024-03-02T04:28:21;6.70;99.90
18884;DHT22;9574;47.282;9.640;2024-03-02T04:30:48;6.50;99.90
18884;DHT22;9574;47.282;9.640;2024-03-02T04:33:15;6.40;99.90
18884;DHT22;9574;47.282;9.640;2024-03-02T04:35:42;6.30;99.90
18884;DHT22;9574;47.282;9.640;2024-03-02T04:38:09;6.20;99.90
18884;DHT22;9574;47.282;9.640;2024-03-02T04:40:37;6.20;99.90
18884;DHT22;9574;47.282;9.640;2024-03-02T04:43:04;6.40;99.90
18884;DHT22;9574;47.282;9.640;2024-03-02T04:45:31;6.40;99.90
18884;DHT22;9574;47.282;9.640;2024-03-02T04:47:58;6.40;99.90
18884;DHT22;9574;47.282;9.640;2024-03-02T04:50:25;6.50;99.90
18884;DHT22;9574;47.282;9.640;2024-03-02T04:52:52;6.40;99.90
18884;DHT22;9574;47.282;9.640;2024-03-02T04:55:19;6.40;99.90
18884;DHT22;9574;47.282;9.640;2024-03-02T04:58:17;6.30;99.90
18884;DHT22;9574;47.282;9.640;2024-03-02T05:00:44;6.30;99.90
18884;DHT22;9574;47.282;9.640;2024-03-02T05:03:12;6.40;99.90
18884;DHT22;9574;47.282;9.640;2024-03-02T05:05:39;6.40;99.90
18884;DHT22;9574;47.282;9.640;2024-03-02T05:08:06;6.30;99.90
18884;DHT22;9574;47.282;9.640;2024-03-02T05:10:33;6.20;99.90
18884;DHT22;9574;47.282;9.640;2024-03-02T05:13:02;6.00;99.90
18884;DHT22;9574;47.282;9.640;2024-03-02T05:15:30;6.00;99.90
18884;DHT22;9574;47.282;9.640;2024-03-02T05:17:57;6.00;99.90
18884;DHT22;9574;47.282;9.640;2024-03-02T05:20:25;5.90;99.90
18884;DHT22;9574;47.282;9.640;2024-03-02T05:22:52;5.80;99.90
18884;DHT22;9574;47.282;9.640;2024-03-02T05:25:18;5.70;99.90
18884;DHT22;9574;47.282;9.640;2024-03-02T05:27:45;5.70;99.90
18884;DHT22;9574;47.282;9.640;2024-03-02T05:30:13;5.70;99.90
18884;DHT22;9574;47.282;9.640;2024-03-02T05:32:41;5.80;99.90
18884;DHT22;9574;47.282;9.640;2024-03-02T05:35:08;5.80;99.90
18884;DHT22;9574;47.282;9.640;2024-03-02T05:37:36;5.80;99.90
18884;DHT22;9574;47.282;9.640;2024-03-02T05:40:06;5.80;99.90
18884;DHT22;9574;47.282;9.640;2024-03-02T05:42:33;5.90;99.90
18884;DHT22;9574;47.282;9.640;2024-03-02T05:45:00;6.00;99.90
18884;DHT22;9574;47.282;9.640;2024-03-02T05:47:27;6.10;99.90
18884;DHT22;9574;47.282;9.640;2024-03-02T05:49:56;6.20;99.90
18884;DHT22;9574;47.282;9.640;2024-03-02T05:52:22;6.20;99.90
18884;DHT22;9574;47.282;9.640;2024-03-02T05:54:49;6.20;99.90
18884;DHT22;9574;47.282;9.640;2024-03-02T05:57:16;6.30;99.90
18884;DHT22;9574;47.282;9.640;2024-03-02T05:59:57;6.40;99.90
18884;DHT22;9574;47.282;9.640;2024-03-02T06:02:24;6.50;99.90
18884;DHT22;9574;47.282;9.640;2024-03-02T06:04:54;6.40;99.90
18884;DHT22;9574;47.282;9.640;2024-03-02T06:07:22;6.30;99.90
18884;DHT22;9574;47.282;9.640;2024-03-02T06:09:49;6.10;99.90
18884;DHT22;9574;47.282;9.640;2024-03-02T06:12:18;6.00;99.90
18884;DHT22;9574;47.282;9.640;2024-03-02T06:14:45;6.00;99.90
18884;DHT22;9574;47.282;9.640;2024-03-02T06:17:12;6.10;99.90
18884;DHT22;9574;47.282;9.640;2024-03-02T06:19:39;6.10;99.90
18884;DHT22;9574;47.282;9.640;2024-03-02T06:22:06;6.00;99.90
18884;DHT22;9574;47.282;9.640;2024-03-02T06:24:37;5.90;99.90
18884;DHT22;9574;47.282;9.640;2024-03-02T06:27:05;5.90;99.90
18884;DHT22;9574;47.282;9.640;2024-03-02T06:29:32;6.10;99.90
18884;DHT22;9574;47.282;9.640;2024-03-02T06:31:59;6.40;99.90
18884;DHT22;9574;47.282;9.640;2024-03-02T06:34:26;6.30;99.90
18884;DHT22;9574;47.282;9.640;2024-03-02T06:36:53;6.20;99.90
18884;DHT22;9574;47.282;9.640;2024-03-02T06:39:21;6.40;99.90
18884;DHT22;9574;47.282;9.640;2024-03-02T06:41:49;6.30;99.90
18884;DHT22;9574;47.282;9.640;2024-03-02T06:44:16;6.20;99.90
18884;DHT22;9574;47.282;9.640;2024-03-02T06:46:43;6.20;99.90
18884;DHT22;9574;47.282;9.640;2024-03-02T06:49:10;6.30;99.90
18884;DHT22;9574;47.282;9.640;2024-03-02T06:51:37;6.50;99.90
18884;DHT22;9574;47.282;9.640;2024-03-02T06:54:04;6.60;99.90
18884;DHT22;9574;47.282;9.640;2024-03-02T06:56:31;6.50;99.90
18884;DHT22;9574;47.282;9.640;2024-03-02T06:59:01;6.40;99.90
18884;DHT22;9574;47.282;9.640;2024-03-02T07:01:27;6.50;99.90
18884;DHT22;9574;47.282;9.640;2024-03-02T07:03:54;6.60;99.90
18884;DHT22;9574;47.282;9.640;2024-03-02T07:06:21;6.70;99.90
18884;DHT22;9574;47.282;9.640;2024-03-02T07:08:48;6.60;99.90
18884;DHT22;9574;47.282;9.640;2024-03-02T07:11:15;6.60;99.90
18884;DHT22;9574;47.282;9.640;2024-03-02T07:13:42;6.60;99.90
18884;DHT22;9574;47.282;9.640;2024-03-02T07:16:10;6.50;99.90
18884;DHT22;9574;47.282;9.640;2024-03-02T07:18:54;6.50;99.90
18884;DHT22;9574;47.282;9.640;2024-03-02T07:21:22;6.40;99.90
18884;DHT22;9574;47.282;9.640;2024-03-02T07:23:49;6.40;99.90
18884;DHT22;9574;47.282;9.640;2024-03-02T07:26:17;6.50;99.90
18884;DHT22;9574;47.282;9.640;2024-03-02T07:28:45;6.60;99.90
18884;DHT22;9574;47.282;9.640;2024-03-02T07:31:15;6.80;99.90
18884;DHT22;9574;47.282;9.640;2024-03-02T07:33:44;7.00;99.90
18884;DHT22;9574;47.282;9.640;2024-03-02T07:36:11;7.10;99.90
18884;DHT22;9574;47.282;9.640;2024-03-02T07:38:38;7.30;99.90
18884;DHT22;9574;47.282;9.640;2024-03-02T07:41:06;7.40;99.90
18884;DHT22;9574;47.282;9.640;2024-03-02T07:43:34;7.70;99.90
18884;DHT22;9574;47.282;9.640;2024-03-02T07:46:01;7.90;99.90
18884;DHT22;9574;47.282;9.640;2024-03-02T07:48:30;8.00;99.90
18884;DHT22;9574;47.282;9.640;2024-03-02T07:50:57;8.00;99.90
18884;DHT22;9574;47.282;9.640;2024-03-02T07:53:24;8.00;99.90
18884;DHT22;9574;47.282;9.640;2024-03-02T07:55:51;7.90;99.90
18884;DHT22;9574;47.282;9.640;2024-03-02T07:58:18;8.00;99.90
18884;DHT22;9574;47.282;9.640;2024-03-02T08:00:45;8.00;99.90
18884;DHT22;9574;47.282;9.640;2024-03-02T08:03:13;8.10;99.90
18884;DHT22;9574;47.282;9.640;2024-03-02T08:05:41;8.20;99.90
18884;DHT22;9574;47.282;9.640;2024-03-02T08:08:08;8.20;99.90
18884;DHT22;9574;47.282;9.640;2024-03-02T08:10:35;8.20;99.90
18884;DHT22;9574;47.282;9.640;2024-03-02T08:13:02;8.30;99.90
18884;DHT22;9574;47.282;9.640;2024-03-02T08:15:30;8.20;99.90
18884;DHT22;9574;47.282;9.640;2024-03-02T08:17:56;8.40;99.90
18884;DHT22;9574;47.282;9.640;2024-03-02T08:20:23;8.50;99.90
18884;DHT22;9574;47.282;9.640;2024-03-02T08:22:52;8.50;99.90
18884;DHT22;9574;47.282;9.640;2024-03-02T08:25:20;8.40;99.90
18884;DHT22;9574;47.282;9.640;2024-03-02T08:27:48;8.40;99.90
18884;DHT22;9574;47.282;9.640;2024-03-02T08:30:15;8.40;99.90
18884;DHT22;9574;47.282;9.640;2024-03-02T08:32:43;8.40;99.90
18884;DHT22;9574;47.282;9.640;2024-03-02T08:35:10;8.50;99.90
18884;DHT22;9574;47.282;9.640;2024-03-02T08:37:39;8.40;99.90
18884;DHT22;9574;47.282;9.640;2024-03-02T08:40:09;8.50;99.90
18884;DHT22;9574;47.282;9.640;2024-03-02T08:42:36;8.70;99.90
18884;DHT22;9574;47.282;9.640;2024-03-02T08:45:06;9.00;99.90
18884;DHT22;9574;47.282;9.640;2024-03-02T08:47:33;9.30;99.90
18884;DHT22;9574;47.282;9.640;2024-03-02T08:50:00;9.50;99.90
18884;DHT22;9574;47.282;9.640;2024-03-02T08:52:27;9.80;99.90
18884;DHT22;9574;47.282;9.640;2024-03-02T08:54:54;10.00;99.90
18884;DHT22;9574;47.282;9.640;2024-03-02T08:57:22;10.20;99.90
18884;DHT22;9574;47.282;9.640;2024-03-02T08:59:49;10.40;99.90
18884;DHT22;9574;47.282;9.640;2024-03-02T09:02:16;10.40;99.90
18884;DHT22;9574;47.282;9.640;2024-03-02T09:04:44;10.30;99.90
18884;DHT22;9574;47.282;9.640;2024-03-02T09:07:10;10.40;99.90
18884;DHT22;9574;47.282;9.640;2024-03-02T09:09:37;10.50;99.90
18884;DHT22;9574;47.282;9.640;2024-03-02T09:12:05;10.70;99.90
18884;DHT22;9574;47.282;9.640;2024-03-02T09:14:35;10.90;99.90
18884;DHT22;9574;47.282;9.640;2024-03-02T09:17:03;11.00;99.90
18884;DHT22;9574;47.282;9.640;2024-03-02T09:19:33;11.20;99.90
18884;DHT22;9574;47.282;9.640;2024-03-02T09:22:00;11.30;99.90
18884;DHT22;9574;47.282;9.640;2024-03-02T09:24:28;11.40;99.90
18884;DHT22;9574;47.282;9.640;2024-03-02T09:26:55;11.50;99.90
18884;DHT22;9574;47.282;9.640;2024-03-02T09:29:22;11.70;99.90
18884;DHT22;9574;47.282;9.640;2024-03-02T09:31:51;11.90;99.90
18884;DHT22;9574;47.282;9.640;2024-03-02T09:34:18;12.20;99.90
18884;DHT22;9574;47.282;9.640;2024-03-02T09:36:45;12.50;99.90
18884;DHT22;9574;47.282;9.640;2024-03-02T09:39:12;12.60;99.90
18884;DHT22;9574;47.282;9.640;2024-03-02T09:41:39;12.80;99.90
18884;DHT22;9574;47.282;9.640;2024-03-02T09:44:06;12.90;99.90
18884;DHT22;9574;47.282;9.640;2024-03-02T09:46:35;13.00;99.90
18884;DHT22;9574;47.282;9.640;2024-03-02T09:49:04;13.10;99.90
18884;DHT22;9574;47.282;9.640;2024-03-02T09:51:31;12.90;99.90
18884;DHT22;9574;47.282;9.640;2024-03-02T09:54:01;12.80;99.90
18884;DHT22;9574;47.282;9.640;2024-03-02T09:56:28;12.70;99.90
18884;DHT22;9574;47.282;9.640;2024-03-02T09:58:55;12.90;99.90
18884;DHT22;9574;47.282;9.640;2024-03-02T10:01:22;12.90;99.90
18884;DHT22;9574;47.282;9.640;2024-03-02T10:03:49;12.70;99.90
18884;DHT22;9574;47.282;9.640;2024-03-02T10:06:22;12.50;99.90
18884;DHT22;9574;47.282;9.640;2024-03-02T10:08:49;12.40;99.90
18884;DHT22;9574;47.282;9.640;2024-03-02T10:11:27;12.30;99.90
18884;DHT22;9574;47.282;9.640;2024-03-02T10:14:05;12.20;99.90
18884;DHT22;9574;47.282;9.640;2024-03-02T10:16:34;12.00;99.90
18884;DHT22;9574;47.282;9.640;2024-03-02T10:19:15;11.80;99.90
18884;DHT22;9574;47.282;9.640;2024-03-02T10:21:46;11.60;99.90
18884;DHT22;9574;47.282;9.640;2024-03-02T10:24:13;11.60;99.90
18884;DHT22;9574;47.282;9.640;2024-03-02T10:26:40;11.60;99.90
18884;DHT22;9574;47.282;9.640;2024-03-02T10:29:08;11.30;99.90
18884;DHT22;9574;47.282;9.640;2024-03-02T10:31:37;11.10;99.90
18884;DHT22;9574;47.282;9.640;2024-03-02T10:34:05;11.10;99.90
18884;DHT22;9574;47.282;9.640;2024-03-02T10:36:32;11.10;99.90
18884;DHT22;9574;47.282;9.640;2024-03-02T10:39:02;11.10;99.90
18884;DHT22;9574;47.282;9.640;2024-03-02T10:41:32;11.10;99.90
18884;DHT22;9574;47.282;9.640;2024-03-02T10:43:59;11.10;99.90
18884;DHT22;9574;47.282;9.640;2024-03-02T10:46:29;11.10;99.90
18884;DHT22;9574;47.282;9.640;2024-03-02T10:48:56;11.10;99.90
18884;DHT22;9574;47.282;9.640;2024-03-02T10:51:24;11.00;99.90
18884;DHT22;9574;47.282;9.640;2024-03-02T10:53:51;11.20;99.90
18884;DHT22;9574;47.282;9.640;2024-03-02T10:56:27;11.20;99.90
18884;DHT22;9574;47.282;9.640;2024-03-02T10:59:01;11.40;99.90
18884;DHT22;9574;47.282;9.640;2024-03-02T11:01:29;11.90;99.90
18884;DHT22;9574;47.282;9.640;2024-03-02T11:03:58;12.40;99.90
18884;DHT22;9574;47.282;9.640;2024-03-02T11:06:28;12.80;99.90
18884;DHT22;9574;47.282;9.640;2024-03-02T11:09:00;12.80;99.90
18884;DHT22;9574;47.282;9.640;2024-03-02T11:11:37;12.50;99.90
18884;DHT22;9574;47.282;9.640;2024-03-02T11:14:09;12.60;99.90
18884;DHT22;9574;47.282;9.640;2024-03-02T11:16:38;12.60;99.90
18884;DHT22;9574;47.282;9.640;2024-03-02T11:19:08;12.70;99.90
18884;DHT22;9574;47.282;9.640;2024-03-02T11:21:37;12.80;99.90
18884;DHT22;9574;47.282;9.640;2024-03-02T11:24:28;12.80;99.90
18884;DHT22;9574;47.282;9.640;2024-03-02T11:27:00;12.90;99.90
18884;DHT22;9574;47.282;9.640;2024-03-02T11:29:43;13.00;99.90
18884;DHT22;9574;47.282;9.640;2024-03-02T11:32:16;12.90;99.90
18884;DHT22;9574;47.282;9.640;2024-03-02T11:34:44;12.70;99.90
18884;DHT22;9574;47.282;9.640;2024-03-02T11:37:12;12.40;99.90
18884;DHT22;9574;47.282;9.640;2024-03-02T11:39:40;12.30;99.90
18884;DHT22;9574;47.282;9.640;2024-03-02T11:42:08;12.30;99.90
18884;DHT22;9574;47.282;9.640;2024-03-02T11:44:36;12.50;99.90
18884;DHT22;9574;47.282;9.640;2024-03-02T11:47:06;12.80;99.90
18884;DHT22;9574;47.282;9.640;2024-03-02T11:49:37;13.10;99.90
18884;DHT22;9574;47.282;9.640;2024-03-02T11:52:06;13.50;99.90
18884;DHT22;9574;47.282;9.640;2024-03-02T11:54:34;13.70;99.90
18884;DHT22;9574;47.282;9.640;2024-03-02T11:57:04;14.00;99.90
18884;DHT22;9574;47.282;9.640;2024-03-02T11:59:32;14.20;99.90
18884;DHT22;9574;47.282;9.640;2024-03-02T12:02:00;14.20;99.90
18884;DHT22;9574;47.282;9.640;2024-03-02T12:04:27;14.20;99.90
18884;DHT22;9574;47.282;9.640;2024-03-02T12:06:55;14.50;99.90
18884;DHT22;9574;47.282;9.640;2024-03-02T12:09:25;14.90;99.90
18884;DHT22;9574;47.282;9.640;2024-03-02T12:12:02;15.20;99.90
18884;DHT22;9574;47.282;9.640;2024-03-02T12:14:30;15.60;99.90
18884;DHT22;9574;47.282;9.640;2024-03-02T12:16:58;16.10;99.90
18884;DHT22;9574;47.282;9.640;2024-03-02T12:19:25;16.60;99.90
18884;DHT22;9574;47.282;9.640;2024-03-02T12:21:52;16.80;99.90
18884;DHT22;9574;47.282;9.640;2024-03-02T12:24:20;16.70;99.90
18884;DHT22;9574;47.282;9.640;2024-03-02T12:26:49;16.90;99.90
18884;DHT22;9574;47.282;9.640;2024-03-02T12:29:16;17.20;99.90
18884;DHT22;9574;47.282;9.640;2024-03-02T12:31:45;17.40;99.90
18884;DHT22;9574;47.282;9.640;2024-03-02T12:34:14;17.60;99.90
18884;DHT22;9574;47.282;9.640;2024-03-02T12:36:42;17.70;99.90
18884;DHT22;9574;47.282;9.640;2024-03-02T12:39:09;17.80;99.90
18884;DHT22;9574;47.282;9.640;2024-03-02T12:41:37;17.90;99.90
18884;DHT22;9574;47.282;9.640;2024-03-02T12:44:04;18.00;99.90
18884;DHT22;9574;47.282;9.640;2024-03-02T12:46:31;17.90;99.90
18884;DHT22;9574;47.282;9.640;2024-03-02T12:49:04;18.00;99.90
18884;DHT22;9574;47.282;9.640;2024-03-02T12:51:33;18.00;99.90
18884;DHT22;9574;47.282;9.640;2024-03-02T12:54:00;17.90;99.90
18884;DHT22;9574;47.282;9.640;2024-03-02T12:56:27;17.90;99.90
18884;DHT22;9574;47.282;9.640;2024-03-02T12:58:54;17.80;99.90
18884;DHT22;9574;47.282;9.640;2024-03-02T13:01:21;17.80;99.90
18884;DHT22;9574;47.282;9.640;2024-03-02T13:03:49;18.00;99.90
18884;DHT22;9574;47.282;9.640;2024-03-02T13:06:17;18.10;99.90
18884;DHT22;9574;47.282;9.640;2024-03-02T13:08:46;18.10;99.90
18884;DHT22;9574;47.282;9.640;2024-03-02T13:11:13;18.10;99.90
18884;DHT22;9574;47.282;9.640;2024-03-02T13:13:40;18.10;99.90
18884;DHT22;9574;47.282;9.640;2024-03-02T13:16:08;18.10;99.90
18884;DHT22;9574;47.282;9.640;2024-03-02T13:18:36;18.20;99.90
18884;DHT22;9574;47.282;9.640;2024-03-02T13:21:03;18.20;99.90
18884;DHT22;9574;47.282;9.640;2024-03-02T13:23:30;18.20;99.90
18884;DHT22;9574;47.282;9.640;2024-03-02T13:25:59;18.20;99.90
18884;DHT22;9574;47.282;9.640;2024-03-02T13:28:26;18.40;99.90
18884;DHT22;9574;47.282;9.640;2024-03-02T13:30:53;18.60;99.90
18884;DHT22;9574;47.282;9.640;2024-03-02T13:33:20;18.70;99.90
18884;DHT22;9574;47.282;9.640;2024-03-02T13:35:49;18.50;99.90
18884;DHT22;9574;47.282;9.640;2024-03-02T13:38:17;18.50;99.90
18884;DHT22;9574;47.282;9.640;2024-03-02T13:40:44;18.20;99.90
18884;DHT22;9574;47.282;9.640;2024-03-02T13:43:12;17.60;99.90
18884;DHT22;9574;47.282;9.640;2024-03-02T13:45:39;17.50;99.90
18884;DHT22;9574;47.282;9.640;2024-03-02T13:48:07;17.90;99.90
18884;DHT22;9574;47.282;9.640;2024-03-02T13:50:34;18.20;99.90
18884;DHT22;9574;47.282;9.640;2024-03-02T13:53:01;18.50;99.90
18884;DHT22;9574;47.282;9.640;2024-03-02T13:55:28;18.80;99.90
18884;DHT22;9574;47.282;9.640;2024-03-02T13:57:55;19.00;99.90
18884;DHT22;9574;47.282;9.640;2024-03-02T14:00:24;19.00;99.90
18884;DHT22;9574;47.282;9.640;2024-03-02T14:02:52;19.00;99.90
18884;DHT22;9574;47.282;9.640;2024-03-02T14:05:19;19.10;99.90
18884;DHT22;9574;47.282;9.640;2024-03-02T14:07:45;19.20;99.90
18884;DHT22;9574;47.282;9.640;2024-03-02T14:10:12;19.30;99.90
18884;DHT22;9574;47.282;9.640;2024-03-02T14:12:41;19.30;99.90
18884;DHT22;9574;47.282;9.640;2024-03-02T14:15:08;19.40;99.90
18884;DHT22;9574;47.282;9.640;2024-03-02T14:17:37;19.40;99.90
18884;DHT22;9574;47.282;9.640;2024-03-02T14:20:04;19.30;99.90
18884;DHT22;9574;47.282;9.640;2024-03-02T14:22:32;19.40;99.90
18884;DHT22;9574;47.282;9.640;2024-03-02T14:24:59;19.40;99.90
18884;DHT22;9574;47.282;9.640;2024-03-02T14:27:26;19.40;99.90
18884;DHT22;9574;47.282;9.640;2024-03-02T14:29:53;19.30;99.90
18884;DHT22;9574;47.282;9.640;2024-03-02T14:32:20;18.90;99.90
18884;DHT22;9574;47.282;9.640;2024-03-02T14:34:49;18.60;99.90
18884;DHT22;9574;47.282;9.640;2024-03-02T14:37:15;18.50;99.90
18884;DHT22;9574;47.282;9.640;2024-03-02T14:39:43;18.60;99.90
18884;DHT22;9574;47.282;9.640;2024-03-02T14:42:10;18.60;99.90
18884;DHT22;9574;47.282;9.640;2024-03-02T14:44:36;18.50;99.90
18884;DHT22;9574;47.282;9.640;2024-03-02T14:47:04;18.20;99.90
18884;DHT22;9574;47.282;9.640;2024-03-02T14:49:31;18.30;99.90
18884;DHT22;9574;47.282;9.640;2024-03-02T14:52:00;18.40;99.90
18884;DHT22;9574;47.282;9.640;2024-03-02T14:54:27;18.50;99.90
18884;DHT22;9574;47.282;9.640;2024-03-02T14:56:54;18.50;99.90
18884;DHT22;9574;47.282;9.640;2024-03-02T14:59:22;18.30;99.90
18884;DHT22;9574;47.282;9.640;2024-03-02T15:01:49;18.30;99.90
18884;DHT22;9574;47.282;9.640;2024-03-02T15:04:16;18.10;99.90
18884;DHT22;9574;47.282;9.640;2024-03-02T15:06:44;18.00;99.90
18884;DHT22;9574;47.282;9.640;2024-03-02T15:09:12;17.80;99.90
18884;DHT22;9574;47.282;9.640;2024-03-02T15:11:40;17.60;99.90
18884;DHT22;9574;47.282;9.640;2024-03-02T15:14:07;17.40;99.90
18884;DHT22;9574;47.282;9.640;2024-03-02T15:16:34;17.30;99.90
18884;DHT22;9574;47.282;9.640;2024-03-02T15:19:01;17.20;99.90
18884;DHT22;9574;47.282;9.640;2024-03-02T15:21:28;17.00;99.90
18884;DHT22;9574;47.282;9.640;2024-03-02T15:23:55;16.70;99.90
18884;DHT22;9574;47.282;9.640;2024-03-02T15:26:23;16.30;99.90
18884;DHT22;9574;47.282;9.640;2024-03-02T15:28:50;16.40;99.90
18884;DHT22;9574;47.282;9.640;2024-03-02T15:31:19;16.20;99.90
18884;DHT22;9574;47.282;9.640;2024-03-02T15:33:45;16.20;99.90
18884;DHT22;9574;47.282;9.640;2024-03-02T15:36:12;16.10;99.90
18884;DHT22;9574;47.282;9.640;2024-03-02T15:38:40;16.20;99.90
18884;DHT22;9574;47.282;9.640;2024-03-02T15:41:06;16.20;99.90
18884;DHT22;9574;47.282;9.640;2024-03-02T15:43:35;16.10;99.90
18884;DHT22;9574;47.282;9.640;2024-03-02T15:46:05;16.10;99.90
18884;DHT22;9574;47.282;9.640;2024-03-02T15:48:31;15.90;99.90
18884;DHT22;9574;47.282;9.640;2024-03-02T15:50:59;16.00;99.90
18884;DHT22;9574;47.282;9.640;2024-03-02T15:53:26;16.00;99.90
18884;DHT22;9574;47.282;9.640;2024-03-02T15:55:53;15.70;99.90
18884;DHT22;9574;47.282;9.640;2024-03-02T15:58:20;15.40;99.90
18884;DHT22;9574;47.282;9.640;2024-03-02T16:00:48;15.30;99.90
18884;DHT22;9574;47.282;9.640;2024-03-02T16:03:15;15.10;99.90